^^
Meteo Knjazevac Station Historical Data
Daily Summary for March 20, 2021 Units:  Metric    English   Both
Daily Weekly Monthly Yearly Custom
  High: Low: Average:
Temperature: -0.5 °C -4.7 °C -2.9 °C
Dew Point: -2.6 °C -5.9 °C -4.3 °C
Humidity: 93% 86% 90%
Wind Speed: 9.7km/h 0km/h 3.5km/h
Wind Gust: 22.5km/h - -
Wind- - South
Pressure: 1024.9 hPa 1024.6 hPa -
Precipitation: 0 mm    
Historical Graphs
 
 
Tabular Data for March 20, 2021
Time Temperature Dew Point Pressure Wind Wind Speed Wind Gust Humidity Rainfall Rate (Hourly) solar Conditions
00:00 -4.3 °C -5.6 °C 1024.9 hPa NW 1.6 km/h 6.4 km/h 91% 0 mm 0 W/m2
00:10 -4.4 °C -5.7 °C 1024.9 hPa West 3.2 km/h 6.4 km/h 91% 0 mm 0 W/m2
00:20 -4.5 °C -5.7 °C 1024.9 hPa NW 1.6 km/h 6.4 km/h 91% 0 mm 0 W/m2
00:30 -4.4 °C -5.3 °C 1024.9 hPa SSW 1.6 km/h 11.3 km/h 93% 0 mm 0 W/m2
00:40 -4.3 °C -5.3 °C 1024.9 hPa Calm   4.8 km/h 93% 0 mm 0 W/m2
00:50 -4 °C -4.9 °C 1024.9 hPa Calm   12.9 km/h 93% 0 mm 0 W/m2
01:00 -4 °C -4.9 °C 1024.9 hPa WSW 1.6 km/h 4.8 km/h 93% 0 mm 0 W/m2
01:10 -3.9 °C -4.9 °C 1024.9 hPa SE 3.2 km/h 12.9 km/h 93% 0 mm 0 W/m2
01:20 -3.6 °C -4.6 °C 1024.9 hPa SE 9.7 km/h 14.5 km/h 93% 0 mm 0 W/m2
01:30 -3.9 °C -5.3 °C 1024.9 hPa South 8 km/h 16.1 km/h 90% 0 mm 0 W/m2
01:40 -4.3 °C -5.8 °C 1024.6 hPa WSW 3.2 km/h 12.9 km/h 89% 0 mm 0 W/m2
01:50 -4.3 °C -5.7 °C 1024.9 hPa Calm   14.5 km/h 90% 0 mm 0 W/m2
02:00 -4.4 °C -5.8 °C 1024.9 hPa WSW 1.6 km/h 12.9 km/h 90% 0 mm 0 W/m2
02:10 -4.5 °C -5.7 °C 1024.6 hPa WSW 1.6 km/h 6.4 km/h 91% 0 mm 0 W/m2
02:20 -4.7 °C -5.9 °C 1024.6 hPa WNW 1.6 km/h 6.4 km/h 91% 0 mm 0 W/m2
02:30 -4.7 °C -5.9 °C 1024.9 hPa West 1.6 km/h 3.2 km/h 91% 0 mm 0 W/m2
02:40 -4.6 °C -5.6 °C 1024.9 hPa West 1.6 km/h 6.4 km/h 93% 0 mm 0 W/m2
02:50 -4.3 °C -5.3 °C 1024.6 hPa SSE 1.6 km/h 8 km/h 93% 0 mm 0 W/m2
03:00 -3.6 °C -4.5 °C 1024.6 hPa SSE 4.8 km/h 11.3 km/h 93% 0 mm 0 W/m2
03:10 -3.4 °C -4.8 °C 1024.6 hPa SSE 3.2 km/h 9.7 km/h 90% 0 mm 0 W/m2
03:20 -3.4 °C -4.8 °C 1024.6 hPa ESE 1.6 km/h 8 km/h 90% 0 mm 0 W/m2
03:30 -3.5 °C -4.9 °C 1024.9 hPa Calm   8 km/h 90% 0 mm 0 W/m2
03:40 -3.3 °C -4.7 °C 1024.6 hPa SSE 3.2 km/h 11.3 km/h 90% 0 mm 0 W/m2
03:50 -3.3 °C -4.7 °C 1024.6 hPa WSW 3.2 km/h 11.3 km/h 90% 0 mm 0 W/m2
04:00 -2.9 °C -4.3 °C 1024.6 hPa SSE 3.2 km/h 11.3 km/h 90% 0 mm 0 W/m2
04:10 -2.6 °C -4.1 °C 1024.6 hPa ESE 8 km/h 17.7 km/h 90% 0 mm 0 W/m2
04:20 -2.3 °C -3.9 °C 1024.9 hPa ESE 9.7 km/h 17.7 km/h 89% 0 mm 0 W/m2
04:30 -2.1 °C -3.7 °C 1024.6 hPa SE 1.6 km/h 17.7 km/h 89% 0 mm 0 W/m2
04:40 -2.1 °C -3.7 °C 1024.6 hPa SE 4.8 km/h 11.3 km/h 89% 0 mm 0 W/m2
04:50 -2 °C -3.6 °C 1024.6 hPa SE 8 km/h 19.3 km/h 89% 0 mm 0 W/m2
05:00 -1.8 °C -3.4 °C 1024.6 hPa SE 1.6 km/h 14.5 km/h 89% 0 mm 0 W/m2
05:10 -1.8 °C -3.4 °C 1024.6 hPa ESE 4.8 km/h 12.9 km/h 89% 0 mm 0 W/m2
05:20 -1.7 °C -3.3 °C 1024.9 hPa SSE 3.2 km/h 16.1 km/h 89% 0 mm 0 W/m2
05:30 -1.6 °C -3.2 °C 1024.6 hPa SSE 4.8 km/h 11.3 km/h 89% 0 mm 0 W/m2
05:40 -1.4 °C -3.2 °C 1024.6 hPa SE 4.8 km/h 16.1 km/h 88% 0 mm 0 W/m2
05:50 -1.3 °C -3.1 °C 1024.6 hPa SSE 4.8 km/h 16.1 km/h 88% 0 mm 0 W/m2
06:00 -1 °C -2.7 °C 1024.6 hPa SSE 4.8 km/h 17.7 km/h 88% 0 mm 0 W/m2
06:10 -0.8 °C -2.8 °C 1024.9 hPa South 4.8 km/h 12.9 km/h 86% 0 mm 0 W/m2
06:20 -0.6 °C -2.7 °C 1024.9 hPa SSE 3.2 km/h 22.5 km/h 86% 0 mm 0 W/m2
06:30 -0.6 °C -2.7 °C 1024.6 hPa SSE 8 km/h 17.7 km/h 86% 0 mm 0 W/m2
06:40 -0.6 °C -2.6 °C 1024.6 hPa SSE 4.8 km/h 12.9 km/h 86% 0 mm 0 W/m2
06:50 -0.5 °C -2.6 °C 1024.9 hPa SSE 3.2 km/h 16.1 km/h 86% 0 mm 0 W/m2
07:00 -0.5 °C -2.6 °C 1024.9 hPa SSW 1.6 km/h 14.5 km/h 86% 0 mm 1 W/m2
07:10 -0.5 °C -2.6 °C 1024.9 hPa SSE 3.2 km/h 16.1 km/h 86% 0 mm 5 W/m2
Knjazevac, Serbia
Compliments of Weather Underground - 2 mb